Time;durP1;ratioP1;P1;durP2;ratioP2;P2;SDS_P1;SDS_P2;PMS_P1;PMS_P2;Temp;Humidity;BMP_temperature;BMP_pressure;BME280_temperature;BME280_humidity;BME280_pressure;Samples;Min_cycle;Max_cycle;Signal;HPM_P1;HPM_P2
2022/10/05 00:02:40;;;;;;;17.27;9.32;;;;;;;11.50;100.00;100913.34;8261371;28;20061;-49
2022/10/05 00:06:54;;;;;;;18.13;10.05;;;;;;;11.57;100.00;100905.53;8260760;28;20045;-49
2022/10/05 00:10:55;;;;;;;16.30;9.00;;;;;;;11.69;100.00;100896.34;8261145;28;20065;-50
2022/10/05 00:14:59;;;;;;;18.20;9.77;;;;;;;11.73;100.00;100892.34;8261070;28;20140;-51
2022/10/05 00:19:00;;;;;;;14.73;9.48;;;;;;;11.75;100.00;100896.63;8261053;28;20053;-51
2022/10/05 00:23:03;;;;;;;18.00;10.25;;;;;;;11.79;100.00;100892.69;8260915;28;20038;-50
2022/10/05 00:27:17;;;;;;;18.13;9.90;;;;;;;11.93;100.00;100889.53;8260928;28;20049;-51
2022/10/05 00:31:24;;;;;;;22.40;10.38;;;;;;;12.02;100.00;100878.88;8258872;28;20129;-50
2022/10/05 00:35:28;;;;;;;21.73;10.52;;;;;;;11.88;100.00;100886.41;8260451;28;20053;-50
2022/10/05 00:39:28;;;;;;;17.85;10.13;;;;;;;11.81;100.00;100885.25;8259586;28;20046;-49
2022/10/05 00:52:54;;;;;;;20.75;11.00;;;;;;;11.61;100.00;100875.34;8292797;28;20477;-52
2022/10/05 01:01:41;;;;;;;17.38;10.95;;;;;;;11.57;100.00;100876.63;8323588;27;20922;-49
2022/10/05 01:06:10;;;;;;;20.70;11.13;;;;;;;11.52;100.00;100884.28;8319875;28;20507;-51
2022/10/05 01:10:36;;;;;;;20.77;10.48;;;;;;;11.46;100.00;100884.84;8320112;28;20038;-50
2022/10/05 01:14:51;;;;;;;17.05;10.35;;;;;;;11.47;100.00;100880.28;8319937;28;20049;-49
2022/10/05 01:19:05;;;;;;;23.58;12.13;;;;;;;11.39;100.00;100889.09;8319911;28;20030;-49
2022/10/05 01:23:46;;;;;;;21.60;11.77;;;;;;;11.30;100.00;100889.03;8318333;28;20073;-49
2022/10/05 01:27:53;;;;;;;19.98;11.00;;;;;;;11.25;100.00;100886.75;8318975;28;20048;-51
2022/10/05 01:32:03;;;;;;;20.25;11.05;;;;;;;11.25;100.00;100875.06;8318757;28;20042;-49
2022/10/05 01:36:32;;;;;;;24.90;11.82;;;;;;;11.24;100.00;100863.41;8318082;28;20442;-48
2022/10/05 01:40:47;;;;;;;19.75;11.48;;;;;;;11.24;100.00;100873.34;8317419;28;20033;-49
2022/10/05 01:44:55;;;;;;;;;;;;;;;11.20;100.00;100867.34;8318924;28;20052;-49
2022/10/05 01:49:28;;;;;;;26.30;12.43;;;;;;;11.41;100.00;100860.03;8319307;28;20676;-50
2022/10/05 01:54:09;;;;;;;20.05;11.55;;;;;;;11.79;100.00;100859.28;8315785;28;20034;-51
2022/10/05 01:58:22;;;;;;;21.13;10.32;;;;;;;12.33;100.00;100853.34;8312797;28;20060;-52
2022/10/05 02:02:25;;;;;;;14.05;9.60;;;;;;;12.74;100.00;100850.28;8318469;28;20565;-52
2022/10/05 02:06:36;;;;;;;18.77;8.95;;;;;;;13.12;100.00;100839.34;8318409;28;20121;-51
2022/10/05 02:10:45;;;;;;;15.98;9.07;;;;;;;13.29;100.00;100843.97;8307399;28;20042;-49
2022/10/05 02:14:51;;;;;;;13.85;8.38;;;;;;;13.34;100.00;100836.25;8296541;28;20437;-49
2022/10/05 02:18:58;;;;;;;18.75;9.60;;;;;;;13.35;100.00;100844.25;8296492;28;20560;-52
2022/10/05 02:23:06;;;;;;;16.50;9.10;;;;;;;13.39;100.00;100828.50;8296229;28;20041;-51
2022/10/05 02:27:13;;;;;;;15.00;9.73;;;;;;;13.27;100.00;100833.25;8295662;28;20056;-50
2022/10/05 02:31:21;;;;;;;15.93;9.90;;;;;;;13.13;100.00;100830.19;8295015;28;20049;-54
2022/10/05 02:35:22;;;;;;;13.95;9.15;;;;;;;12.97;100.00;100832.66;8294424;28;20135;-50
2022/10/05 02:39:40;;;;;;;16.63;10.35;;;;;;;12.59;100.00;100836.31;8295900;28;20050;-50
2022/10/05 02:43:57;;;;;;;17.70;10.98;;;;;;;12.12;100.00;100833.66;8282257;28;20049;-50
2022/10/05 02:52:28;;;;;;;19.65;11.63;;;;;;;11.49;100.00;100840.38;8292998;28;20389;-51
2022/10/05 02:56:45;;;;;;;22.52;12.93;;;;;;;11.53;100.00;100826.44;8281969;28;20034;-50
2022/10/05 03:00:55;;;;;;;22.15;12.23;;;;;;;11.46;100.00;100825.28;8285636;28;20052;-52
2022/10/05 03:05:20;;;;;;;26.67;13.73;;;;;;;11.38;100.00;100827.81;8287439;28;20466;-48
2022/10/05 03:09:29;;;;;;;22.40;13.05;;;;;;;11.36;100.00;100821.69;8287143;28;20518;-50
2022/10/05 03:13:59;;;;;;;23.40;12.18;;;;;;;11.35;100.00;100811.84;8285608;28;20646;-51
2022/10/05 03:18:29;;;;;;;20.70;12.43;;;;;;;11.29;100.00;100812.41;8282321;28;20041;-48
2022/10/05 03:31:50;;;;;;;22.45;12.98;;;;;;;11.17;100.00;100802.69;8403309;27;20474;-48
2022/10/05 03:36:05;;;;;;;21.58;12.38;;;;;;;11.14;100.00;100811.09;8401011;28;20543;-48
2022/10/05 03:40:32;;;;;;;22.50;12.70;;;;;;;11.02;100.00;100795.94;8403622;28;20122;-48
2022/10/05 03:44:57;;;;;;;22.23;12.93;;;;;;;10.96;100.00;100796.50;8418823;28;20090;-48
2022/10/05 03:53:32;;;;;;;24.40;12.82;;;;;;;11.07;100.00;100785.56;8325591;27;20502;-48
2022/10/05 03:57:37;;;;;;;20.70;12.52;;;;;;;11.18;100.00;100782.75;8319765;28;20044;-48
2022/10/05 04:01:44;;;;;;;20.00;11.35;;;;;;;11.27;100.00;100768.38;8312674;28;20044;-48
2022/10/05 04:05:50;;;;;;;18.08;11.48;;;;;;;11.36;100.00;100775.69;8312557;28;20072;-49
2022/10/05 04:09:53;;;;;;;17.98;11.50;;;;;;;11.35;100.00;100763.13;8311216;28;20037;-50
2022/10/05 04:14:05;;;;;;;21.50;10.85;;;;;;;11.36;100.00;100764.84;8315438;28;20141;-48
2022/10/05 04:18:27;;;;;;;20.88;10.57;;;;;;;11.40;100.00;100760.84;8317074;28;20233;-48
2022/10/05 04:22:37;;;;;;;20.83;11.10;;;;;;;11.48;100.00;100769.16;8309718;28;20037;-50
2022/10/05 04:26:49;;;;;;;15.23;10.63;;;;;;;11.51;100.00;100768.00;8313584;28;20061;-49
2022/10/05 04:30:53;;;;;;;19.02;11.27;;;;;;;11.64;100.00;100769.47;8317499;28;20030;-48
2022/10/05 04:35:23;;;;;;;14.63;9.75;;;;;;;11.74;100.00;100773.03;8318631;28;20124;-51
2022/10/05 04:40:03;;;;;;;15.48;9.60;;;;;;;11.85;100.00;100767.50;8313732;28;20048;-48
2022/10/05 04:44:32;;;;;;;11.45;8.77;;;;;;;11.97;100.00;100759.19;8313889;28;20429;-48
2022/10/05 04:49:12;;;;;;;13.10;8.98;;;;;;;12.09;100.00;100764.34;8312213;28;20045;-48
2022/10/05 04:53:38;;;;;;;11.63;8.25;;;;;;;12.00;100.00;100770.63;8313402;28;20045;-49
2022/10/05 04:57:49;;;;;;;12.48;8.18;;;;;;;12.01;100.00;100776.91;8311032;28;20408;-49
2022/10/05 05:02:20;;;;;;;12.43;8.02;;;;;;;11.97;100.00;100770.03;8308799;28;20034;-48
2022/10/05 05:07:00;;;;;;;12.55;6.80;;;;;;;11.99;100.00;100765.34;8284455;28;20477;-49
2022/10/05 05:11:15;;;;;;;9.73;6.90;;;;;;;12.02;100.00;100773.19;8292812;28;20041;-48
2022/10/05 05:15:35;;;;;;;;;;;;;;;12.10;100.00;100771.47;8277309;28;20176;-48
2022/10/05 05:20:17;;;;;;;11.35;7.03;;;;;;;12.23;100.00;100771.19;8286977;28;20362;-49
2022/10/05 05:24:44;;;;;;;9.90;7.13;;;;;;;12.38;100.00;100769.72;8314072;28;20492;-48
2022/10/05 05:28:59;;;;;;;12.13;7.50;;;;;;;12.43;100.00;100772.84;8289537;28;20033;-49
2022/10/05 05:33:14;;;;;;;13.75;8.05;;;;;;;12.39;100.00;100776.84;8291751;28;20038;-49
2022/10/05 05:37:42;;;;;;;16.10;8.25;;;;;;;12.42;100.00;100771.13;8295233;28;20515;-49
2022/10/05 05:42:05;;;;;;;13.40;8.82;;;;;;;12.35;100.00;100776.28;8288270;28;20061;-51
2022/10/05 05:46:15;;;;;;;15.80;9.13;;;;;;;12.35;100.00;100772.72;8288476;28;20069;-50
2022/10/05 05:50:45;;;;;;;15.73;9.02;;;;;;;12.38;100.00;100770.56;8295004;28;20037;-49
2022/10/05 05:54:59;;;;;;;11.75;8.52;;;;;;;12.34;100.00;100773.72;8294891;28;20050;-50
2022/10/05 05:59:13;;;;;;;15.05;9.07;;;;;;;12.29;100.00;100770.59;8291637;28;20041;-49
2022/10/05 06:03:40;;;;;;;16.27;10.25;;;;;;;12.21;100.00;100767.75;8287237;28;20038;-49
2022/10/05 06:07:43;;;;;;;13.70;9.20;;;;;;;12.27;100.00;100778.00;8292811;28;20069;-48
2022/10/05 06:11:52;;;;;;;18.13;10.23;;;;;;;12.35;100.00;100775.44;8293436;28;20050;-48
2022/10/05 06:16:02;;;;;;;14.93;9.15;;;;;;;12.51;100.00;100789.25;8293545;28;20042;-49
2022/10/05 06:20:13;;;;;;;13.98;8.35;;;;;;;12.54;100.00;100791.66;8293300;28;20046;-48
2022/10/05 06:24:22;;;;;;;16.42;9.52;;;;;;;12.60;100.00;100791.91;8292771;28;20377;-48
2022/10/05 06:28:26;;;;;;;17.80;9.40;;;;;;;12.59;100.00;100786.66;8299906;28;20521;-50
2022/10/05 06:32:40;;;;;;;18.40;9.48;;;;;;;12.75;100.00;100773.31;8291554;28;20041;-49
2022/10/05 06:36:52;;;;;;;11.38;8.50;;;;;;;12.94;100.00;100778.69;8293294;28;20038;-49
2022/10/05 06:41:05;;;;;;;12.05;8.50;;;;;;;13.05;100.00;100781.25;8293241;28;20551;-49
2022/10/05 06:45:23;;;;;;;16.23;9.63;;;;;;;13.16;100.00;100779.19;8293378;28;20041;-49
2022/10/05 06:49:47;;;;;;;12.38;8.82;;;;;;;13.28;100.00;100774.38;8292733;28;20042;-49
2022/10/05 06:54:26;;;;;;;14.63;9.30;;;;;;;13.37;100.00;100777.06;8285121;28;20119;-49
2022/10/05 06:58:57;;;;;;;14.95;9.55;;;;;;;13.43;100.00;100770.16;8287360;28;20092;-50
2022/10/05 07:03:23;;;;;;;12.10;9.10;;;;;;;13.55;100.00;100774.38;8283482;28;20041;-48
2022/10/05 07:07:36;;;;;;;14.32;9.55;;;;;;;13.58;100.00;100768.63;8283048;28;20118;-49
2022/10/05 07:11:56;;;;;;;17.25;9.75;;;;;;;13.62;100.00;100770.03;8285259;28;20119;-48
2022/10/05 07:16:37;;;;;;;13.57;9.68;;;;;;;13.73;100.00;100761.66;8291366;28;20065;-48
2022/10/05 07:21:02;;;;;;;16.65;10.32;;;;;;;13.86;100.00;100767.56;8291800;28;20466;-50
2022/10/05 07:25:19;;;;;;;16.05;9.77;;;;;;;13.93;100.00;100760.47;8291597;28;20046;-51
2022/10/05 07:29:31;;;;;;;13.68;9.13;;;;;;;14.08;100.00;100766.19;8292174;28;20506;-50
2022/10/05 07:33:41;;;;;;;16.33;9.52;;;;;;;14.16;100.00;100763.56;8284976;28;20030;-48
2022/10/05 07:37:53;;;;;;;15.68;9.43;;;;;;;14.21;100.00;100772.94;8284733;28;20046;-52
2022/10/05 07:42:22;;;;;;;16.88;9.32;;;;;;;14.31;100.00;100767.47;8284987;28;20415;-48
2022/10/05 07:47:00;;;;;;;16.52;9.65;;;;;;;14.50;100.00;100773.56;8281423;28;20127;-50
2022/10/05 07:51:15;;;;;;;19.35;9.32;;;;;;;14.61;100.00;100770.56;8277198;28;20029;-50
2022/10/05 07:55:21;;;;;;;15.25;8.70;;;;;;;14.76;100.00;100774.41;8290756;28;20042;-51
2022/10/05 07:59:38;;;;;;;14.60;9.25;;;;;;;14.91;100.00;100780.94;8288938;28;20038;-50
2022/10/05 08:04:07;;;;;;;14.50;8.88;;;;;;;15.06;100.00;100782.06;8287876;28;20041;-50
2022/10/05 08:08:20;;;;;;;12.63;8.80;;;;;;;15.22;100.00;100782.13;8287991;28;20048;-52
2022/10/05 08:12:53;;;;;;;15.73;8.25;;;;;;;15.40;100.00;100785.63;8282844;28;20034;-48
2022/10/05 08:16:58;;;;;;;9.15;7.07;;;;;;;15.53;100.00;100791.47;8283406;28;20416;-51
2022/10/05 08:20:59;;;;;;;12.68;7.18;;;;;;;15.73;100.00;100785.75;8287035;28;20034;-49
2022/10/05 08:25:08;;;;;;;9.25;6.20;;;;;;;15.92;100.00;100774.53;8289160;28;20038;-49
2022/10/05 08:29:20;;;;;;;7.55;6.10;;;;;;;16.09;100.00;100779.81;8289106;28;20092;-52
2022/10/05 08:33:24;;;;;;;8.30;5.70;;;;;;;16.31;100.00;100781.03;8282954;28;20034;-48
2022/10/05 08:37:31;;;;;;;6.90;5.80;;;;;;;16.49;99.31;100784.44;8276236;28;20042;-50
2022/10/05 08:41:56;;;;;;;5.53;4.93;;;;;;;16.70;96.94;100771.97;8289931;28;20036;-50
2022/10/05 08:46:53;;;;;;;7.65;5.20;;;;;;;17.01;94.88;100780.25;8286601;28;20038;-49
2022/10/05 08:55:29;;;;;;;6.10;4.88;;;;;;;17.23;93.54;100782.25;8403132;27;20383;-49
2022/10/05 09:00:06;;;;;;;6.50;4.95;;;;;;;17.31;94.16;100780.31;8408612;28;20040;-52
2022/10/05 09:04:38;;;;;;;7.15;4.90;;;;;;;17.57;92.51;100778.16;8413465;28;20040;-51
2022/10/05 09:09:18;;;;;;;8.43;3.83;;;;;;;17.85;90.12;100772.19;8378668;28;20040;-51
2022/10/05 09:13:58;;;;;;;5.07;3.63;;;;;;;18.13;89.32;100763.25;8401792;28;20093;-49
2022/10/05 09:23:18;;;;;;;7.43;3.72;;;;;;;19.34;81.91;100758.25;8478918;27;20350;-51
2022/10/05 09:27:32;;;;;;;6.07;3.03;;;;;;;19.07;82.42;100764.41;8481546;27;20044;-50
2022/10/05 09:31:50;;;;;;;;;;;;;;;19.56;82.10;100763.81;8483522;27;20046;-48
2022/10/05 09:36:21;;;;;;;6.55;3.40;;;;;;;19.52;80.64;100755.97;8480623;27;19981;-51
2022/10/05 09:41:02;;;;;;;4.18;2.75;;;;;;;21.31;76.86;100759.94;8466344;27;20036;-50
2022/10/05 09:45:43;;;;;;;7.15;1.70;;;;;;;24.43;64.40;100746.03;8450060;27;20390;-50
2022/10/05 09:50:10;;;;;;;2.28;1.40;;;;;;;26.34;58.57;100741.66;8450035;27;20080;-52
2022/10/05 09:54:50;;;;;;;3.50;1.58;;;;;;;26.74;54.96;100738.00;8449649;27;20044;-52
2022/10/05 09:59:30;;;;;;;5.15;1.58;;;;;;;27.57;52.99;100733.00;8447405;27;20036;-50
2022/10/05 10:03:55;;;;;;;1.92;1.15;;;;;;;26.30;55.00;100735.75;8446742;27;20044;-50
2022/10/05 10:12:34;;;;;;;1.55;0.82;;;;;;;27.75;52.65;100734.78;8312069;27;20396;-49
2022/10/05 10:16:57;;;;;;;1.92;0.90;;;;;;;25.06;58.21;100742.03;8279935;28;20120;-49
2022/10/05 10:26:25;;;;;;;3.70;1.27;;;;;;;28.63;50.96;100725.63;8391329;27;20369;-52
2022/10/05 10:30:55;;;;;;;1.95;0.82;;;;;;;28.68;50.92;100719.28;8362332;28;20598;-49
2022/10/05 10:44:04;;;;;;;3.00;0.82;;;;;;;29.23;48.97;100706.22;8292493;28;20762;-50
2022/10/05 10:48:29;;;;;;;2.65;0.90;;;;;;;29.22;48.55;100701.78;8279479;28;20053;-49
2022/10/05 10:53:10;;;;;;;1.65;0.90;;;;;;;28.74;49.69;100684.88;8284343;28;20050;-50
2022/10/05 10:57:19;;;;;;;1.42;0.90;;;;;;;28.71;49.55;100696.50;8284182;28;20042;-49
2022/10/05 11:01:44;;;;;;;1.60;1.08;;;;;;;29.12;48.34;100687.69;8284195;28;20062;-49
2022/10/05 11:06:17;;;;;;;7.20;1.10;;;;;;;29.20;48.18;100673.31;8284695;28;20415;-50
2022/10/05 11:10:57;;;;;;;1.33;0.97;;;;;;;28.50;50.18;100673.09;8284951;28;20049;-50
2022/10/05 11:20:15;;;;;;;3.53;0.80;;;;;;;28.65;47.54;100655.78;8410460;27;21014;-49
2022/10/05 11:29:23;;;;;;;1.00;0.90;;;;;;;28.81;48.20;100646.56;8290736;28;20369;-51
2022/10/05 11:34:02;;;;;;;1.15;0.70;;;;;;;29.84;47.21;100633.41;8290111;28;20040;-50
2022/10/05 11:38:26;;;;;;;3.10;0.90;;;;;;;30.53;46.32;100612.00;8289944;28;20133;-49
2022/10/05 11:43:05;;;;;;;3.15;1.10;;;;;;;30.56;45.47;100605.03;8295201;28;20107;-53
2022/10/05 11:47:38;;;;;;;0.65;0.60;;;;;;;30.17;46.21;100596.91;8284671;28;20050;-52
2022/10/05 11:51:46;;;;;;;;;;;;;;;30.27;46.34;100579.44;8289476;28;20046;-49
2022/10/05 11:56:01;;;;;;;0.80;0.70;;;;;;;29.66;46.68;100578.03;8288648;28;19960;-50
2022/10/05 12:00:16;;;;;;;1.27;0.70;;;;;;;29.25;47.21;100570.31;8286456;28;20498;-50
2022/10/05 12:04:50;;;;;;;1.20;0.60;;;;;;;29.46;47.15;100554.66;8307296;28;20033;-50
2022/10/05 12:09:11;;;;;;;3.28;0.70;;;;;;;29.16;47.11;100544.03;8307758;28;20546;-51
2022/10/05 12:17:44;;;;;;;1.33;0.68;;;;;;;28.89;47.89;100537.53;8387854;27;20831;-49
2022/10/05 12:21:54;;;;;;;2.53;0.73;;;;;;;29.39;47.46;100526.19;8378998;28;20097;-49
2022/10/05 12:26:03;;;;;;;2.10;0.85;;;;;;;29.89;46.61;100523.88;8379911;28;20040;-51
2022/10/05 12:30:31;;;;;;;3.22;0.60;;;;;;;29.57;48.22;100523.84;8379261;28;20495;-50
2022/10/05 12:34:47;;;;;;;2.50;0.70;;;;;;;29.10;47.22;100511.66;8373443;28;20036;-49
2022/10/05 12:39:07;;;;;;;1.50;0.50;;;;;;;28.67;49.46;100511.66;8376958;28;20043;-50
2022/10/05 12:43:30;;;;;;;2.35;0.70;;;;;;;26.61;52.84;100496.88;8375733;28;20098;-51
2022/10/05 12:47:45;;;;;;;1.25;0.80;;;;;;;25.37;55.15;100489.97;8377065;28;20394;-49
2022/10/05 12:51:57;;;;;;;1.25;0.60;;;;;;;24.64;57.43;100478.25;8378804;28;20037;-50
2022/10/05 12:56:37;;;;;;;1.48;0.77;;;;;;;24.53;58.16;100480.94;8372305;28;20598;-49
2022/10/05 13:00:50;;;;;;;1.67;0.70;;;;;;;24.62;58.62;100474.00;8373050;28;20041;-50
2022/10/05 13:05:05;;;;;;;1.17;0.70;;;;;;;24.43;57.76;100475.13;8374645;28;20037;-51
2022/10/05 13:09:17;;;;;;;0.90;0.70;;;;;;;24.29;58.08;100457.84;8372107;28;20190;-53
2022/10/05 13:18:02;;;;;;;1.98;0.80;;;;;;;24.12;58.17;100466.97;8398409;27;20401;-50
2022/10/05 13:22:42;;;;;;;3.03;1.05;;;;;;;23.96;59.33;100445.47;8385169;28;20416;-52
2022/10/05 13:26:48;;;;;;;2.67;0.70;;;;;;;24.22;59.14;100434.13;8376462;28;20048;-52
2022/10/05 13:30:59;;;;;;;2.22;0.80;;;;;;;24.29;59.10;100432.13;8408081;28;20066;-53
2022/10/05 13:39:54;;;;;;;1.00;0.70;;;;;;;24.13;58.40;100424.44;8253356;28;20400;-47
2022/10/05 13:49:09;;;;;;;1.67;1.20;;;;;;;23.64;63.11;100427.28;8323736;27;20355;-49
2022/10/05 13:53:50;;;;;;;1.23;1.10;;;;;;;23.48;63.76;100422.34;8315495;28;20034;-52
2022/10/05 13:58:04;;;;;;;1.77;1.08;;;;;;;23.48;63.89;100425.13;8318149;28;20121;-47
2022/10/05 14:02:11;;;;;;;4.32;1.02;;;;;;;23.62;62.62;100422.00;8286968;28;20548;-49
2022/10/05 14:06:29;;;;;;;0.93;0.80;;;;;;;23.69;60.57;100410.91;8283435;28;20026;-48
2022/10/05 14:10:34;;;;;;;14.52;2.10;;;;;;;23.75;61.03;100415.50;8280704;28;20042;-48
2022/10/05 14:14:56;;;;;;;1.25;0.82;;;;;;;23.64;60.44;100419.00;8274498;28;20132;-53
2022/10/05 14:19:06;;;;;;;1.17;0.68;;;;;;;23.68;61.32;100425.75;8304781;28;20042;-48
2022/10/05 14:23:13;;;;;;;4.10;0.90;;;;;;;23.46;61.04;100424.50;8267595;28;20046;-48
2022/10/05 14:27:25;;;;;;;1.10;0.98;;;;;;;23.49;61.35;100429.56;8308458;28;20038;-51
2022/10/05 14:31:35;;;;;;;2.72;1.00;;;;;;;23.33;61.49;100427.38;8308112;28;20041;-48
2022/10/05 14:39:51;;;;;;;1.92;0.98;;;;;;;23.37;62.16;100423.09;8384564;27;21258;-51
2022/10/05 14:44:00;;;;;;;5.43;1.33;;;;;;;23.39;62.82;100432.00;8364468;28;20119;-48
2022/10/05 14:52:31;;;;;;;5.25;1.65;;;;;;;23.11;65.85;100441.50;8393533;27;20115;-48
2022/10/05 15:00:56;;;;;;;4.65;1.10;;;;;;;22.99;66.64;100457.09;8259750;28;20410;-49
2022/10/05 15:05:13;;;;;;;3.15;1.05;;;;;;;22.93;66.66;100454.34;8214250;28;20046;-47
2022/10/05 15:13:42;;;;;;;1.73;0.90;;;;;;;22.96;67.17;100463.03;8358227;27;20383;-48
2022/10/05 15:17:51;;;;;;;3.50;1.45;;;;;;;22.95;68.35;100469.63;8350112;28;20037;-51
2022/10/05 15:22:10;;;;;;;2.17;1.25;;;;;;;22.94;68.71;100462.41;8378486;28;20040;-49
2022/10/05 15:26:49;;;;;;;1.50;1.30;;;;;;;22.87;69.06;100469.88;8370115;28;20072;-50
2022/10/05 15:31:02;;;;;;;3.22;1.52;;;;;;;22.85;69.22;100468.44;8367522;28;20738;-49
2022/10/05 15:35:35;;;;;;;3.50;1.25;;;;;;;22.81;69.61;100473.53;8388449;27;20051;-48
2022/10/05 15:39:47;;;;;;;4.22;1.50;;;;;;;22.76;70.10;100473.38;8382838;28;20041;-51
2022/10/05 15:44:18;;;;;;;6.13;1.30;;;;;;;22.64;71.24;100477.88;8393908;27;20119;-48
2022/10/05 15:48:35;;;;;;;3.53;1.40;;;;;;;22.62;71.31;100484.66;8395719;28;20064;-49
2022/10/05 15:52:45;;;;;;;2.70;1.10;;;;;;;22.62;71.46;100492.91;8376122;28;20394;-48
2022/10/05 15:56:55;;;;;;;6.82;1.50;;;;;;;22.67;71.66;100499.50;8378640;28;20032;-48
2022/10/05 16:01:06;;;;;;;3.13;1.20;;;;;;;22.64;71.43;100499.94;8370764;28;20048;-48
2022/10/05 16:10:08;;;;;;;5.97;1.15;;;;;;;22.64;69.89;100521.13;8332627;27;20193;-48
2022/10/05 16:14:26;;;;;;;3.42;1.10;;;;;;;22.70;67.70;100525.75;8309116;28;20045;-47
2022/10/05 16:18:53;;;;;;;2.72;1.08;;;;;;;22.69;67.36;100527.66;8303580;28;20132;-48
2022/10/05 16:23:25;;;;;;;4.28;1.17;;;;;;;22.60;68.82;100548.25;8314634;28;20530;-48
2022/10/05 16:28:05;;;;;;;2.92;0.93;;;;;;;22.69;66.52;100552.47;8307833;28;20128;-48
2022/10/05 16:32:15;;;;;;;3.65;1.35;;;;;;;22.59;65.97;100557.59;8300777;28;20523;-48
2022/10/05 16:36:31;;;;;;;2.97;1.08;;;;;;;22.47;66.16;100575.84;8296560;28;20067;-48
2022/10/05 16:45:05;;;;;;;2.75;1.20;;;;;;;21.99;67.85;100601.13;8369626;27;20818;-47
2022/10/05 16:49:34;;;;;;;2.72;1.00;;;;;;;21.78;68.90;100602.19;8372548;28;20052;-48
2022/10/05 16:53:41;;;;;;;4.43;1.13;;;;;;;21.65;69.27;100606.81;8357590;28;20521;-49
2022/10/05 16:57:50;;;;;;;4.10;1.20;;;;;;;21.50;70.05;100609.72;8361323;28;20690;-49
2022/10/05 17:02:06;;;;;;;3.60;1.00;;;;;;;21.25;71.12;100611.34;8373319;28;20664;-47
2022/10/05 17:15:12;;;;;;;2.13;1.17;;;;;;;20.86;72.94;100639.50;8377990;27;20354;-47
2022/10/05 17:19:31;;;;;;;2.55;1.55;;;;;;;20.59;75.81;100642.34;8377974;28;20574;-47
2022/10/05 17:23:57;;;;;;;2.70;1.80;;;;;;;20.28;79.15;100650.16;8369140;28;20046;-47
2022/10/05 17:28:22;;;;;;;3.38;1.80;;;;;;;20.18;79.62;100672.44;8357931;28;20127;-48
2022/10/05 17:32:34;;;;;;;6.32;1.85;;;;;;;20.08;79.85;100677.41;8322985;28;20084;-48
2022/10/05 17:36:46;;;;;;;5.28;2.20;;;;;;;20.05;79.81;100687.94;8360294;28;20583;-49
2022/10/05 17:41:27;;;;;;;9.10;2.67;;;;;;;20.02;79.84;100710.28;8348542;28;20090;-48
2022/10/05 17:55:29;;;;;;;7.22;3.00;;;;;;;19.83;79.30;100728.28;8354667;28;20045;-49
2022/10/05 18:03:40;;;;;;;2.40;2.20;;;;;;;19.66;79.87;100747.88;8370079;28;20123;-48
2022/10/05 18:07:47;;;;;;;2.50;2.22;;;;;;;19.82;79.59;100742.19;8346114;28;20046;-48
2022/10/05 18:12:10;;;;;;;5.03;2.00;;;;;;;19.85;79.60;100753.59;8337873;28;20179;-51
2022/10/05 18:16:11;;;;;;;3.33;1.60;;;;;;;19.95;78.40;100753.28;8316618;28;20087;-48
2022/10/05 18:24:51;;;;;;;4.90;2.42;;;;;;;20.00;76.92;100745.34;8297043;27;20805;-49
2022/10/05 18:29:13;;;;;;;4.53;1.92;;;;;;;20.06;76.20;100741.81;8296562;28;20365;-48
2022/10/05 18:33:48;;;;;;;3.70;1.60;;;;;;;19.97;76.31;100745.72;8314618;28;20048;-48
2022/10/05 18:38:21;;;;;;;2.85;1.95;;;;;;;19.83;76.79;100752.09;8326586;28;20041;-48
2022/10/05 18:42:32;;;;;;;2.90;1.63;;;;;;;19.75;77.27;100742.09;8319549;28;20033;-48
2022/10/05 18:47:00;;;;;;;4.13;2.00;;;;;;;19.82;77.22;100753.16;8319457;28;20095;-48
2022/10/05 18:51:26;;;;;;;4.75;1.90;;;;;;;19.80;76.98;100752.50;8343933;28;20037;-51
2022/10/05 18:55:40;;;;;;;3.35;1.60;;;;;;;19.61;77.88;100745.72;8332327;28;20124;-50
2022/10/05 19:04:21;;;;;;;4.22;1.95;;;;;;;19.35;78.72;100754.50;8320468;28;20834;-49
2022/10/05 19:08:34;;;;;;;4.25;1.80;;;;;;;19.27;79.26;100754.59;8306431;28;20034;-48
2022/10/05 19:13:15;;;;;;;2.83;1.52;;;;;;;19.16;79.76;100767.91;8252601;28;20053;-47
2022/10/05 19:17:24;;;;;;;5.25;2.00;;;;;;;19.09;79.71;100767.81;8266550;28;20621;-50
2022/10/05 19:21:39;;;;;;;2.88;1.60;;;;;;;19.01;80.26;100778.88;8278394;28;20042;-48
2022/10/05 19:26:11;;;;;;;8.35;2.15;;;;;;;19.08;79.40;100788.03;8270693;28;20116;-48
2022/10/05 19:30:24;;;;;;;3.13;1.27;;;;;;;19.18;78.80;100794.06;8273266;28;20567;-47
2022/10/05 19:39:08;;;;;;;5.22;1.88;;;;;;;19.46;77.68;100797.88;8377690;27;20389;-48
2022/10/05 19:43:37;;;;;;;3.10;1.40;;;;;;;19.53;76.96;100808.94;8374579;28;20586;-47
2022/10/05 19:48:18;;;;;;;1.98;1.23;;;;;;;19.68;76.22;100817.13;8368053;28;20458;-48
2022/10/05 19:52:23;;;;;;;3.75;1.75;;;;;;;19.75;76.07;100818.06;8364261;28;20040;-48
2022/10/05 19:56:27;;;;;;;3.03;1.50;;;;;;;19.81;76.34;100817.28;8372625;28;20041;-48
2022/10/05 20:00:34;;;;;;;3.53;1.27;;;;;;;19.89;75.93;100815.31;8372628;28;20562;-47
2022/10/05 20:04:39;;;;;;;4.53;1.30;;;;;;;20.01;75.98;100821.13;8373724;28;20037;-47
2022/10/05 20:08:43;;;;;;;2.30;1.30;;;;;;;20.02;75.93;100831.94;8371849;28;20033;-49
2022/10/05 20:12:49;;;;;;;;;;;;;;;20.02;76.39;100825.56;8372624;28;20041;-47
2022/10/05 20:21:41;;;;;;;1.63;1.20;;;;;;;20.03;77.19;100830.03;8367193;28;20044;-49
2022/10/05 20:25:41;;;;;;;5.10;1.20;;;;;;;20.06;77.37;100837.88;8371296;28;20502;-48
2022/10/05 20:29:43;;;;;;;2.95;1.38;;;;;;;20.05;77.57;100844.41;8372259;28;20080;-47
2022/10/05 20:33:44;;;;;;;2.83;1.73;;;;;;;20.02;77.98;100842.03;8368137;28;20035;-48
2022/10/05 20:37:48;;;;;;;3.05;1.40;;;;;;;19.97;78.31;100855.50;8371572;28;20052;-48
2022/10/05 20:41:49;;;;;;;5.88;1.98;;;;;;;19.87;78.74;100871.41;8369768;28;20082;-49
2022/10/05 20:45:51;;;;;;;3.78;1.48;;;;;;;19.83;79.18;100872.84;8403150;28;21067;-48
2022/10/05 20:49:53;;;;;;;5.55;1.27;;;;;;;19.87;79.28;100876.91;8351200;28;20039;-48
2022/10/05 20:53:55;;;;;;;4.88;1.55;;;;;;;19.90;79.43;100871.88;8351128;28;20037;-50
2022/10/05 20:57:56;;;;;;;3.38;1.20;;;;;;;19.85;79.71;100879.00;8362154;28;20045;-48
2022/10/05 21:01:57;;;;;;;3.38;1.35;;;;;;;19.79;79.84;100893.50;8353572;28;20525;-48
2022/10/05 21:05:58;;;;;;;5.53;1.52;;;;;;;19.76;80.65;100899.38;8354932;28;20051;-48
2022/10/05 21:10:00;;;;;;;6.15;1.48;;;;;;;19.74;80.81;100898.69;8353811;28;20124;-48
2022/10/05 21:14:00;;;;;;;5.05;1.30;;;;;;;19.80;80.42;100898.78;8351513;28;20056;-47
2022/10/05 21:18:01;;;;;;;7.15;1.90;;;;;;;19.78;80.62;100902.75;8355264;28;20099;-48
2022/10/05 21:22:02;;;;;;;7.32;2.00;;;;;;;19.73;80.97;100907.97;8357900;28;20039;-51
2022/10/05 21:26:03;;;;;;;3.50;1.60;;;;;;;19.73;80.98;100908.81;8358790;28;20314;-49
2022/10/05 21:30:04;;;;;;;2.03;1.83;;;;;;;19.72;81.42;100917.22;8356378;28;20041;-48
2022/10/05 21:34:05;;;;;;;10.38;2.42;;;;;;;19.70;81.63;100902.88;8353934;28;20112;-49
2022/10/05 21:38:06;;;;;;;3.13;1.60;;;;;;;19.72;81.62;100909.00;8359301;28;20040;-48
2022/10/05 21:42:06;;;;;;;5.93;1.80;;;;;;;19.68;81.91;100918.66;8356750;28;20037;-48
2022/10/05 21:46:08;;;;;;;5.38;1.80;;;;;;;19.67;82.38;100925.19;8360319;28;20473;-50
2022/10/05 21:50:09;;;;;;;4.93;1.90;;;;;;;19.70;82.83;100941.28;8358602;28;20052;-48
2022/10/05 21:54:14;;;;;;;4.15;1.45;;;;;;;19.82;83.00;100939.75;8359568;28;20049;-48
2022/10/05 21:58:18;;;;;;;5.82;1.80;;;;;;;19.87;83.31;100940.03;8356024;28;20060;-50
2022/10/05 22:02:18;;;;;;;3.67;1.47;;;;;;;19.91;83.20;100960.59;8358188;28;20041;-49
2022/10/05 22:06:19;;;;;;;5.95;1.90;;;;;;;19.86;83.89;101017.91;8351818;28;20068;-49
2022/10/05 22:10:19;;;;;;;6.03;0.82;;;;;;;18.72;84.29;101038.22;8353267;28;20038;-50
2022/10/05 22:14:20;;;;;;;5.75;0.70;;;;;;;18.05;86.73;101050.63;8354300;28;21082;-47
2022/10/05 22:18:23;;;;;;;2.35;0.70;;;;;;;17.80;89.52;101057.19;8354950;28;20378;-48